sensor_id;sensor_type;location;lat;lon;timestamp;P1;durP1;ratioP1;P2;durP2;ratioP2
24961;SDS011;12992;50.884;13.668;2023-05-07T00:00:01;16.17;;;10.25;;
24961;SDS011;12992;50.884;13.668;2023-05-07T00:02:27;15.43;;;10.38;;
24961;SDS011;12992;50.884;13.668;2023-05-07T00:04:53;16.15;;;10.13;;
24961;SDS011;12992;50.884;13.668;2023-05-07T00:07:18;17.75;;;11.38;;
24961;SDS011;12992;50.884;13.668;2023-05-07T00:09:43;20.17;;;11.73;;
24961;SDS011;12992;50.884;13.668;2023-05-07T00:12:09;16.80;;;11.32;;
24961;SDS011;12992;50.884;13.668;2023-05-07T00:14:34;18.67;;;11.90;;
24961;SDS011;12992;50.884;13.668;2023-05-07T00:17:00;23.23;;;13.30;;
24961;SDS011;12992;50.884;13.668;2023-05-07T00:19:25;21.40;;;13.32;;
24961;SDS011;12992;50.884;13.668;2023-05-07T00:21:50;27.08;;;16.10;;
24961;SDS011;12992;50.884;13.668;2023-05-07T00:24:18;31.77;;;16.45;;
24961;SDS011;12992;50.884;13.668;2023-05-07T00:26:43;29.17;;;15.20;;
24961;SDS011;12992;50.884;13.668;2023-05-07T00:29:09;27.50;;;15.20;;
24961;SDS011;12992;50.884;13.668;2023-05-07T00:31:34;30.08;;;16.38;;
24961;SDS011;12992;50.884;13.668;2023-05-07T00:34:00;29.58;;;17.10;;
24961;SDS011;12992;50.884;13.668;2023-05-07T00:36:25;30.15;;;15.73;;
24961;SDS011;12992;50.884;13.668;2023-05-07T00:38:51;28.50;;;15.50;;
24961;SDS011;12992;50.884;13.668;2023-05-07T00:41:16;36.10;;;18.33;;
24961;SDS011;12992;50.884;13.668;2023-05-07T00:43:42;31.77;;;16.48;;
24961;SDS011;12992;50.884;13.668;2023-05-07T00:46:07;34.78;;;18.08;;
24961;SDS011;12992;50.884;13.668;2023-05-07T00:48:32;32.60;;;18.20;;
24961;SDS011;12992;50.884;13.668;2023-05-07T00:50:58;35.63;;;18.38;;
24961;SDS011;12992;50.884;13.668;2023-05-07T00:53:23;35.85;;;18.65;;
24961;SDS011;12992;50.884;13.668;2023-05-07T00:55:49;35.40;;;19.50;;
24961;SDS011;12992;50.884;13.668;2023-05-07T00:58:15;35.28;;;19.10;;
24961;SDS011;12992;50.884;13.668;2023-05-07T01:00:40;32.40;;;17.75;;
24961;SDS011;12992;50.884;13.668;2023-05-07T01:03:06;40.33;;;20.15;;
24961;SDS011;12992;50.884;13.668;2023-05-07T01:05:31;38.35;;;19.55;;
24961;SDS011;12992;50.884;13.668;2023-05-07T01:07:57;34.20;;;18.27;;
24961;SDS011;12992;50.884;13.668;2023-05-07T01:10:23;35.58;;;19.70;;
24961;SDS011;12992;50.884;13.668;2023-05-07T01:12:49;36.95;;;19.35;;
24961;SDS011;12992;50.884;13.668;2023-05-07T01:15:15;38.53;;;19.35;;
24961;SDS011;12992;50.884;13.668;2023-05-07T01:17:42;36.17;;;19.38;;
24961;SDS011;12992;50.884;13.668;2023-05-07T01:20:14;34.22;;;18.65;;
24961;SDS011;12992;50.884;13.668;2023-05-07T01:22:42;32.42;;;17.65;;
24961;SDS011;12992;50.884;13.668;2023-05-07T01:25:08;33.22;;;18.13;;
24961;SDS011;12992;50.884;13.668;2023-05-07T01:27:37;30.20;;;16.90;;
24961;SDS011;12992;50.884;13.668;2023-05-07T01:30:04;31.75;;;18.27;;
24961;SDS011;12992;50.884;13.668;2023-05-07T01:32:43;31.88;;;17.33;;
24961;SDS011;12992;50.884;13.668;2023-05-07T01:35:16;30.50;;;17.30;;
24961;SDS011;12992;50.884;13.668;2023-05-07T01:37:45;29.13;;;16.55;;
24961;SDS011;12992;50.884;13.668;2023-05-07T01:40:12;35.50;;;18.30;;
24961;SDS011;12992;50.884;13.668;2023-05-07T01:42:38;32.92;;;18.23;;
24961;SDS011;12992;50.884;13.668;2023-05-07T01:45:04;34.35;;;18.27;;
24961;SDS011;12992;50.884;13.668;2023-05-07T01:47:29;32.85;;;17.98;;
24961;SDS011;12992;50.884;13.668;2023-05-07T01:49:56;34.05;;;18.10;;
24961;SDS011;12992;50.884;13.668;2023-05-07T01:52:22;28.52;;;15.63;;
24961;SDS011;12992;50.884;13.668;2023-05-07T01:54:47;30.90;;;16.70;;
24961;SDS011;12992;50.884;13.668;2023-05-07T01:57:13;31.70;;;16.88;;
24961;SDS011;12992;50.884;13.668;2023-05-07T01:59:38;35.05;;;18.30;;
24961;SDS011;12992;50.884;13.668;2023-05-07T02:02:03;33.95;;;17.80;;
24961;SDS011;12992;50.884;13.668;2023-05-07T02:04:30;31.90;;;16.65;;
24961;SDS011;12992;50.884;13.668;2023-05-07T02:06:55;30.42;;;16.80;;
24961;SDS011;12992;50.884;13.668;2023-05-07T02:09:21;32.40;;;17.67;;
24961;SDS011;12992;50.884;13.668;2023-05-07T02:11:48;30.88;;;17.45;;
24961;SDS011;12992;50.884;13.668;2023-05-07T02:14:14;30.92;;;16.98;;
24961;SDS011;12992;50.884;13.668;2023-05-07T02:16:39;31.55;;;16.52;;
24961;SDS011;12992;50.884;13.668;2023-05-07T02:19:05;29.60;;;17.20;;
24961;SDS011;12992;50.884;13.668;2023-05-07T02:21:31;29.38;;;15.90;;
24961;SDS011;12992;50.884;13.668;2023-05-07T02:23:56;30.42;;;17.40;;
24961;SDS011;12992;50.884;13.668;2023-05-07T02:26:21;34.38;;;17.75;;
24961;SDS011;12992;50.884;13.668;2023-05-07T02:28:47;35.08;;;18.75;;
24961;SDS011;12992;50.884;13.668;2023-05-07T02:31:13;35.60;;;18.85;;
24961;SDS011;12992;50.884;13.668;2023-05-07T02:33:38;31.05;;;18.45;;
24961;SDS011;12992;50.884;13.668;2023-05-07T02:36:09;31.45;;;18.33;;
24961;SDS011;12992;50.884;13.668;2023-05-07T02:38:41;29.88;;;18.60;;
24961;SDS011;12992;50.884;13.668;2023-05-07T02:41:08;34.28;;;18.83;;
24961;SDS011;12992;50.884;13.668;2023-05-07T02:43:33;36.05;;;19.65;;
24961;SDS011;12992;50.884;13.668;2023-05-07T02:46:05;31.80;;;19.00;;
24961;SDS011;12992;50.884;13.668;2023-05-07T02:48:35;32.55;;;19.98;;
24961;SDS011;12992;50.884;13.668;2023-05-07T02:51:01;35.45;;;20.55;;
24961;SDS011;12992;50.884;13.668;2023-05-07T02:53:27;37.83;;;20.52;;
24961;SDS011;12992;50.884;13.668;2023-05-07T02:55:53;35.38;;;20.63;;
24961;SDS011;12992;50.884;13.668;2023-05-07T02:58:19;33.75;;;20.50;;
24961;SDS011;12992;50.884;13.668;2023-05-07T03:00:45;31.48;;;19.13;;
24961;SDS011;12992;50.884;13.668;2023-05-07T03:03:37;36.20;;;21.25;;
24961;SDS011;12992;50.884;13.668;2023-05-07T03:06:02;35.05;;;20.85;;
24961;SDS011;12992;50.884;13.668;2023-05-07T03:08:28;35.15;;;20.40;;
24961;SDS011;12992;50.884;13.668;2023-05-07T03:10:53;42.38;;;22.25;;
24961;SDS011;12992;50.884;13.668;2023-05-07T03:13:18;33.90;;;20.15;;
24961;SDS011;12992;50.884;13.668;2023-05-07T03:15:44;42.80;;;22.13;;
24961;SDS011;12992;50.884;13.668;2023-05-07T03:18:09;36.20;;;21.20;;
24961;SDS011;12992;50.884;13.668;2023-05-07T03:20:35;32.90;;;20.20;;
24961;SDS011;12992;50.884;13.668;2023-05-07T03:23:02;35.70;;;20.67;;
24961;SDS011;12992;50.884;13.668;2023-05-07T03:25:27;37.10;;;20.75;;
24961;SDS011;12992;50.884;13.668;2023-05-07T03:27:55;38.58;;;21.95;;
24961;SDS011;12992;50.884;13.668;2023-05-07T03:30:23;39.20;;;20.55;;
24961;SDS011;12992;50.884;13.668;2023-05-07T03:32:49;34.05;;;19.95;;
24961;SDS011;12992;50.884;13.668;2023-05-07T03:35:15;36.55;;;21.80;;
24961;SDS011;12992;50.884;13.668;2023-05-07T03:37:40;35.60;;;20.38;;
24961;SDS011;12992;50.884;13.668;2023-05-07T03:40:07;34.22;;;20.70;;
24961;SDS011;12992;50.884;13.668;2023-05-07T03:42:41;35.72;;;21.58;;
24961;SDS011;12992;50.884;13.668;2023-05-07T03:45:08;37.92;;;22.35;;
24961;SDS011;12992;50.884;13.668;2023-05-07T03:47:34;36.13;;;21.02;;
24961;SDS011;12992;50.884;13.668;2023-05-07T03:49:59;34.85;;;20.63;;
24961;SDS011;12992;50.884;13.668;2023-05-07T03:52:24;33.00;;;20.27;;
24961;SDS011;12992;50.884;13.668;2023-05-07T03:54:52;32.75;;;19.50;;
24961;SDS011;12992;50.884;13.668;2023-05-07T03:57:18;28.73;;;17.88;;
24961;SDS011;12992;50.884;13.668;2023-05-07T03:59:44;30.10;;;17.40;;
24961;SDS011;12992;50.884;13.668;2023-05-07T04:02:09;27.25;;;16.42;;
24961;SDS011;12992;50.884;13.668;2023-05-07T04:04:35;25.30;;;16.25;;
24961;SDS011;12992;50.884;13.668;2023-05-07T04:07:00;26.77;;;15.75;;
24961;SDS011;12992;50.884;13.668;2023-05-07T04:09:26;27.70;;;16.08;;
24961;SDS011;12992;50.884;13.668;2023-05-07T04:11:53;21.77;;;14.07;;
24961;SDS011;12992;50.884;13.668;2023-05-07T04:14:18;23.70;;;14.57;;
24961;SDS011;12992;50.884;13.668;2023-05-07T04:16:43;21.45;;;12.77;;
24961;SDS011;12992;50.884;13.668;2023-05-07T04:19:09;23.05;;;14.23;;
24961;SDS011;12992;50.884;13.668;2023-05-07T04:21:35;20.55;;;13.05;;
24961;SDS011;12992;50.884;13.668;2023-05-07T04:24:02;18.60;;;11.63;;
24961;SDS011;12992;50.884;13.668;2023-05-07T04:26:28;16.92;;;11.00;;
24961;SDS011;12992;50.884;13.668;2023-05-07T04:28:54;17.27;;;11.13;;
24961;SDS011;12992;50.884;13.668;2023-05-07T04:31:20;15.32;;;10.68;;
24961;SDS011;12992;50.884;13.668;2023-05-07T04:33:49;17.63;;;11.88;;
24961;SDS011;12992;50.884;13.668;2023-05-07T04:36:15;18.67;;;12.00;;
24961;SDS011;12992;50.884;13.668;2023-05-07T04:38:47;15.90;;;10.65;;
24961;SDS011;12992;50.884;13.668;2023-05-07T04:41:13;15.13;;;10.98;;
24961;SDS011;12992;50.884;13.668;2023-05-07T04:43:39;18.35;;;10.43;;
24961;SDS011;12992;50.884;13.668;2023-05-07T04:46:05;16.98;;;10.98;;
24961;SDS011;12992;50.884;13.668;2023-05-07T04:48:30;15.75;;;10.82;;
24961;SDS011;12992;50.884;13.668;2023-05-07T04:50:57;15.65;;;10.77;;
24961;SDS011;12992;50.884;13.668;2023-05-07T04:53:22;15.95;;;10.68;;
24961;SDS011;12992;50.884;13.668;2023-05-07T04:55:49;18.92;;;11.68;;
24961;SDS011;12992;50.884;13.668;2023-05-07T04:58:20;16.67;;;11.30;;
24961;SDS011;12992;50.884;13.668;2023-05-07T05:00:46;20.45;;;12.48;;
24961;SDS011;12992;50.884;13.668;2023-05-07T05:03:11;19.85;;;12.05;;
24961;SDS011;12992;50.884;13.668;2023-05-07T05:05:38;22.17;;;13.18;;
24961;SDS011;12992;50.884;13.668;2023-05-07T05:08:03;20.75;;;12.27;;
24961;SDS011;12992;50.884;13.668;2023-05-07T05:10:29;20.13;;;12.50;;
24961;SDS011;12992;50.884;13.668;2023-05-07T05:12:55;21.58;;;12.85;;
24961;SDS011;12992;50.884;13.668;2023-05-07T05:15:22;21.33;;;12.60;;
24961;SDS011;12992;50.884;13.668;2023-05-07T05:17:47;20.58;;;11.73;;
24961;SDS011;12992;50.884;13.668;2023-05-07T05:20:14;18.70;;;11.88;;
24961;SDS011;12992;50.884;13.668;2023-05-07T05:22:41;20.33;;;12.70;;
24961;SDS011;12992;50.884;13.668;2023-05-07T05:25:07;17.70;;;11.57;;
24961;SDS011;12992;50.884;13.668;2023-05-07T05:27:33;16.38;;;11.02;;
24961;SDS011;12992;50.884;13.668;2023-05-07T05:29:59;17.55;;;10.88;;
24961;SDS011;12992;50.884;13.668;2023-05-07T05:32:24;17.58;;;11.35;;
24961;SDS011;12992;50.884;13.668;2023-05-07T05:34:53;17.83;;;11.40;;
24961;SDS011;12992;50.884;13.668;2023-05-07T05:37:18;17.63;;;11.57;;
24961;SDS011;12992;50.884;13.668;2023-05-07T05:39:44;19.13;;;12.10;;
24961;SDS011;12992;50.884;13.668;2023-05-07T05:42:09;18.30;;;11.35;;
24961;SDS011;12992;50.884;13.668;2023-05-07T05:44:35;20.45;;;11.77;;
24961;SDS011;12992;50.884;13.668;2023-05-07T05:47:00;20.55;;;12.82;;
24961;SDS011;12992;50.884;13.668;2023-05-07T05:49:26;17.50;;;11.48;;
24961;SDS011;12992;50.884;13.668;2023-05-07T05:51:52;18.65;;;11.48;;
24961;SDS011;12992;50.884;13.668;2023-05-07T05:54:19;20.30;;;12.07;;
24961;SDS011;12992;50.884;13.668;2023-05-07T05:56:44;15.93;;;10.32;;
24961;SDS011;12992;50.884;13.668;2023-05-07T05:59:10;19.75;;;11.25;;
24961;SDS011;12992;50.884;13.668;2023-05-07T06:01:36;19.67;;;11.88;;
24961;SDS011;12992;50.884;13.668;2023-05-07T06:04:03;16.42;;;11.23;;
24961;SDS011;12992;50.884;13.668;2023-05-07T06:06:28;16.95;;;10.90;;
24961;SDS011;12992;50.884;13.668;2023-05-07T06:08:54;18.30;;;12.38;;
24961;SDS011;12992;50.884;13.668;2023-05-07T06:11:24;16.83;;;11.18;;
24961;SDS011;12992;50.884;13.668;2023-05-07T06:13:50;16.38;;;10.73;;
24961;SDS011;12992;50.884;13.668;2023-05-07T06:16:15;17.02;;;10.85;;
24961;SDS011;12992;50.884;13.668;2023-05-07T06:18:41;19.80;;;11.32;;
24961;SDS011;12992;50.884;13.668;2023-05-07T06:21:07;19.63;;;11.70;;
24961;SDS011;12992;50.884;13.668;2023-05-07T06:23:34;19.27;;;12.05;;
24961;SDS011;12992;50.884;13.668;2023-05-07T06:26:00;17.25;;;11.68;;
24961;SDS011;12992;50.884;13.668;2023-05-07T06:28:31;17.30;;;10.15;;
24961;SDS011;12992;50.884;13.668;2023-05-07T06:31:14;15.85;;;10.60;;
24961;SDS011;12992;50.884;13.668;2023-05-07T06:33:44;16.15;;;10.07;;
24961;SDS011;12992;50.884;13.668;2023-05-07T06:36:10;15.68;;;10.95;;
24961;SDS011;12992;50.884;13.668;2023-05-07T06:38:38;14.40;;;9.40;;
24961;SDS011;12992;50.884;13.668;2023-05-07T06:41:05;17.88;;;10.32;;
24961;SDS011;12992;50.884;13.668;2023-05-07T06:43:31;15.18;;;9.63;;
24961;SDS011;12992;50.884;13.668;2023-05-07T06:46:15;14.23;;;9.52;;
24961;SDS011;12992;50.884;13.668;2023-05-07T06:48:40;14.32;;;9.40;;
24961;SDS011;12992;50.884;13.668;2023-05-07T06:51:06;14.75;;;9.75;;
24961;SDS011;12992;50.884;13.668;2023-05-07T06:53:31;14.70;;;9.05;;
24961;SDS011;12992;50.884;13.668;2023-05-07T06:55:59;13.82;;;9.10;;
24961;SDS011;12992;50.884;13.668;2023-05-07T06:58:24;15.27;;;9.88;;
24961;SDS011;12992;50.884;13.668;2023-05-07T07:00:50;13.48;;;9.52;;
24961;SDS011;12992;50.884;13.668;2023-05-07T07:03:16;12.25;;;9.07;;
24961;SDS011;12992;50.884;13.668;2023-05-07T07:05:41;14.77;;;9.38;;
24961;SDS011;12992;50.884;13.668;2023-05-07T07:08:07;14.70;;;9.15;;
24961;SDS011;12992;50.884;13.668;2023-05-07T07:10:33;14.25;;;8.48;;
24961;SDS011;12992;50.884;13.668;2023-05-07T07:12:59;12.05;;;8.35;;
24961;SDS011;12992;50.884;13.668;2023-05-07T07:15:26;12.00;;;8.13;;
24961;SDS011;12992;50.884;13.668;2023-05-07T07:17:53;10.05;;;6.97;;
24961;SDS011;12992;50.884;13.668;2023-05-07T07:20:19;10.57;;;7.28;;
24961;SDS011;12992;50.884;13.668;2023-05-07T07:22:45;10.45;;;7.47;;
24961;SDS011;12992;50.884;13.668;2023-05-07T07:25:11;10.07;;;7.13;;
24961;SDS011;12992;50.884;13.668;2023-05-07T07:27:37;9.40;;;6.55;;
24961;SDS011;12992;50.884;13.668;2023-05-07T07:30:03;10.15;;;7.30;;
24961;SDS011;12992;50.884;13.668;2023-05-07T07:32:32;8.63;;;6.30;;
24961;SDS011;12992;50.884;13.668;2023-05-07T07:34:58;9.68;;;6.50;;
24961;SDS011;12992;50.884;13.668;2023-05-07T07:37:24;7.78;;;5.70;;
24961;SDS011;12992;50.884;13.668;2023-05-07T07:39:50;7.53;;;5.97;;
24961;SDS011;12992;50.884;13.668;2023-05-07T07:42:16;8.30;;;6.10;;
24961;SDS011;12992;50.884;13.668;2023-05-07T07:44:41;9.48;;;6.47;;
24961;SDS011;12992;50.884;13.668;2023-05-07T07:47:09;9.80;;;6.53;;
24961;SDS011;12992;50.884;13.668;2023-05-07T07:49:34;7.65;;;5.45;;
24961;SDS011;12992;50.884;13.668;2023-05-07T07:52:03;8.75;;;6.20;;
24961;SDS011;12992;50.884;13.668;2023-05-07T07:54:30;9.55;;;6.38;;
24961;SDS011;12992;50.884;13.668;2023-05-07T07:56:57;8.70;;;6.65;;
24961;SDS011;12992;50.884;13.668;2023-05-07T07:59:23;9.15;;;5.95;;
24961;SDS011;12992;50.884;13.668;2023-05-07T08:01:49;8.35;;;5.70;;
24961;SDS011;12992;50.884;13.668;2023-05-07T08:04:16;13.23;;;7.35;;
24961;SDS011;12992;50.884;13.668;2023-05-07T08:06:41;9.90;;;5.90;;
24961;SDS011;12992;50.884;13.668;2023-05-07T08:09:08;8.95;;;6.43;;
24961;SDS011;12992;50.884;13.668;2023-05-07T08:11:34;8.45;;;6.35;;
24961;SDS011;12992;50.884;13.668;2023-05-07T08:14:00;8.52;;;6.10;;
24961;SDS011;12992;50.884;13.668;2023-05-07T08:16:25;6.20;;;5.18;;
24961;SDS011;12992;50.884;13.668;2023-05-07T08:18:51;7.20;;;5.40;;
24961;SDS011;12992;50.884;13.668;2023-05-07T08:21:17;9.23;;;6.88;;
24961;SDS011;12992;50.884;13.668;2023-05-07T08:23:42;12.60;;;7.00;;
24961;SDS011;12992;50.884;13.668;2023-05-07T08:26:08;12.27;;;9.73;;
24961;SDS011;12992;50.884;13.668;2023-05-07T08:28:35;11.05;;;7.65;;
24961;SDS011;12992;50.884;13.668;2023-05-07T08:31:00;10.18;;;7.57;;
24961;SDS011;12992;50.884;13.668;2023-05-07T08:33:28;9.15;;;6.80;;
24961;SDS011;12992;50.884;13.668;2023-05-07T08:35:53;9.13;;;6.80;;
24961;SDS011;12992;50.884;13.668;2023-05-07T08:38:19;7.63;;;6.32;;
24961;SDS011;12992;50.884;13.668;2023-05-07T08:40:45;8.52;;;6.47;;
24961;SDS011;12992;50.884;13.668;2023-05-07T08:43:16;10.15;;;6.88;;
24961;SDS011;12992;50.884;13.668;2023-05-07T08:45:43;8.57;;;6.63;;
24961;SDS011;12992;50.884;13.668;2023-05-07T08:48:14;6.10;;;5.30;;
24961;SDS011;12992;50.884;13.668;2023-05-07T08:50:42;7.67;;;5.90;;
24961;SDS011;12992;50.884;13.668;2023-05-07T08:53:09;8.00;;;5.57;;
24961;SDS011;12992;50.884;13.668;2023-05-07T08:55:34;6.53;;;5.60;;
24961;SDS011;12992;50.884;13.668;2023-05-07T08:58:00;7.68;;;5.55;;
24961;SDS011;12992;50.884;13.668;2023-05-07T09:00:25;7.82;;;5.47;;
24961;SDS011;12992;50.884;13.668;2023-05-07T09:02:53;7.30;;;5.38;;
24961;SDS011;12992;50.884;13.668;2023-05-07T09:05:19;5.65;;;5.05;;
24961;SDS011;12992;50.884;13.668;2023-05-07T09:07:45;8.50;;;5.88;;
24961;SDS011;12992;50.884;13.668;2023-05-07T09:10:12;8.20;;;6.10;;
24961;SDS011;12992;50.884;13.668;2023-05-07T09:12:39;8.10;;;5.90;;
24961;SDS011;12992;50.884;13.668;2023-05-07T09:15:07;7.50;;;5.93;;
24961;SDS011;12992;50.884;13.668;2023-05-07T09:17:33;6.60;;;5.78;;
24961;SDS011;12992;50.884;13.668;2023-05-07T09:20:03;7.28;;;5.68;;
24961;SDS011;12992;50.884;13.668;2023-05-07T09:22:35;8.63;;;6.32;;
24961;SDS011;12992;50.884;13.668;2023-05-07T09:25:08;6.45;;;5.50;;
24961;SDS011;12992;50.884;13.668;2023-05-07T09:27:35;6.38;;;5.05;;
24961;SDS011;12992;50.884;13.668;2023-05-07T09:30:05;6.68;;;5.38;;
24961;SDS011;12992;50.884;13.668;2023-05-07T09:32:36;6.70;;;5.40;;
24961;SDS011;12992;50.884;13.668;2023-05-07T09:35:14;6.57;;;5.72;;
24961;SDS011;12992;50.884;13.668;2023-05-07T09:37:44;6.50;;;5.13;;
24961;SDS011;12992;50.884;13.668;2023-05-07T09:40:20;6.72;;;5.70;;
24961;SDS011;12992;50.884;13.668;2023-05-07T09:42:47;9.88;;;7.97;;
24961;SDS011;12992;50.884;13.668;2023-05-07T09:45:15;6.40;;;5.35;;
24961;SDS011;12992;50.884;13.668;2023-05-07T09:47:42;7.05;;;6.30;;
24961;SDS011;12992;50.884;13.668;2023-05-07T09:50:12;11.30;;;5.57;;
24961;SDS011;12992;50.884;13.668;2023-05-07T09:52:41;9.40;;;6.63;;
24961;SDS011;12992;50.884;13.668;2023-05-07T09:55:08;7.57;;;5.80;;
24961;SDS011;12992;50.884;13.668;2023-05-07T09:57:34;7.20;;;6.13;;
24961;SDS011;12992;50.884;13.668;2023-05-07T10:00:03;6.72;;;5.97;;
24961;SDS011;12992;50.884;13.668;2023-05-07T10:02:35;7.07;;;6.30;;
24961;SDS011;12992;50.884;13.668;2023-05-07T10:05:01;9.77;;;7.32;;
24961;SDS011;12992;50.884;13.668;2023-05-07T10:07:30;8.20;;;7.18;;
24961;SDS011;12992;50.884;13.668;2023-05-07T10:10:02;11.40;;;7.13;;
24961;SDS011;12992;50.884;13.668;2023-05-07T10:12:33;9.88;;;7.70;;
24961;SDS011;12992;50.884;13.668;2023-05-07T10:17:31;6.88;;;5.82;;
24961;SDS011;12992;50.884;13.668;2023-05-07T10:20:00;9.50;;;6.90;;
24961;SDS011;12992;50.884;13.668;2023-05-07T10:22:25;9.45;;;6.50;;
24961;SDS011;12992;50.884;13.668;2023-05-07T10:24:53;8.02;;;6.13;;
24961;SDS011;12992;50.884;13.668;2023-05-07T10:27:20;12.23;;;6.93;;
24961;SDS011;12992;50.884;13.668;2023-05-07T10:32:56;8.88;;;6.15;;
24961;SDS011;12992;50.884;13.668;2023-05-07T10:35:39;6.32;;;5.70;;
24961;SDS011;12992;50.884;13.668;2023-05-07T10:38:08;7.43;;;5.78;;
24961;SDS011;12992;50.884;13.668;2023-05-07T10:40:36;6.65;;;5.78;;
24961;SDS011;12992;50.884;13.668;2023-05-07T10:43:03;6.78;;;5.72;;
24961;SDS011;12992;50.884;13.668;2023-05-07T10:45:35;7.53;;;5.40;;
24961;SDS011;12992;50.884;13.668;2023-05-07T10:48:09;6.07;;;5.47;;
24961;SDS011;12992;50.884;13.668;2023-05-07T10:50:35;7.55;;;6.18;;
24961;SDS011;12992;50.884;13.668;2023-05-07T10:58:45;7.25;;;6.05;;
24961;SDS011;12992;50.884;13.668;2023-05-07T11:01:35;7.38;;;5.93;;
24961;SDS011;12992;50.884;13.668;2023-05-07T11:04:26;9.52;;;5.53;;
24961;SDS011;12992;50.884;13.668;2023-05-07T11:15:05;6.63;;;5.50;;
24961;SDS011;12992;50.884;13.668;2023-05-07T11:17:34;7.25;;;5.28;;
24961;SDS011;12992;50.884;13.668;2023-05-07T11:20:16;8.60;;;5.63;;
24961;SDS011;12992;50.884;13.668;2023-05-07T11:22:50;7.15;;;5.93;;
24961;SDS011;12992;50.884;13.668;2023-05-07T11:25:21;6.28;;;5.30;;
24961;SDS011;12992;50.884;13.668;2023-05-07T11:27:56;6.13;;;5.47;;
24961;SDS011;12992;50.884;13.668;2023-05-07T11:30:30;6.32;;;5.45;;
24961;SDS011;12992;50.884;13.668;2023-05-07T11:32:55;6.20;;;5.47;;
24961;SDS011;12992;50.884;13.668;2023-05-07T11:35:22;7.85;;;6.03;;
24961;SDS011;12992;50.884;13.668;2023-05-07T11:37:50;6.18;;;5.20;;
24961;SDS011;12992;50.884;13.668;2023-05-07T11:40:24;6.82;;;5.35;;
24961;SDS011;12992;50.884;13.668;2023-05-07T11:42:49;6.45;;;5.65;;
24961;SDS011;12992;50.884;13.668;2023-05-07T11:45:19;5.63;;;4.70;;
24961;SDS011;12992;50.884;13.668;2023-05-07T11:47:49;6.20;;;5.60;;
24961;SDS011;12992;50.884;13.668;2023-05-07T11:50:14;6.30;;;5.57;;
24961;SDS011;12992;50.884;13.668;2023-05-07T11:52:39;8.15;;;6.18;;
24961;SDS011;12992;50.884;13.668;2023-05-07T11:55:05;6.25;;;5.38;;
24961;SDS011;12992;50.884;13.668;2023-05-07T11:57:32;7.40;;;5.68;;
24961;SDS011;12992;50.884;13.668;2023-05-07T11:59:58;6.07;;;5.20;;
24961;SDS011;12992;50.884;13.668;2023-05-07T12:02:27;7.85;;;5.72;;
24961;SDS011;12992;50.884;13.668;2023-05-07T12:04:53;7.43;;;5.68;;
24961;SDS011;12992;50.884;13.668;2023-05-07T12:07:19;5.88;;;5.25;;
24961;SDS011;12992;50.884;13.668;2023-05-07T12:09:45;5.57;;;5.00;;
24961;SDS011;12992;50.884;13.668;2023-05-07T12:12:11;6.05;;;5.45;;
24961;SDS011;12992;50.884;13.668;2023-05-07T12:14:38;6.22;;;5.38;;
24961;SDS011;12992;50.884;13.668;2023-05-07T12:17:05;6.65;;;5.38;;
24961;SDS011;12992;50.884;13.668;2023-05-07T12:19:32;6.63;;;5.45;;
24961;SDS011;12992;50.884;13.668;2023-05-07T12:21:58;6.95;;;5.80;;
24961;SDS011;12992;50.884;13.668;2023-05-07T12:24:24;6.18;;;5.55;;
24961;SDS011;12992;50.884;13.668;2023-05-07T12:26:49;6.05;;;5.45;;
24961;SDS011;12992;50.884;13.668;2023-05-07T12:29:14;7.53;;;5.57;;
24961;SDS011;12992;50.884;13.668;2023-05-07T12:31:43;5.93;;;5.32;;
24961;SDS011;12992;50.884;13.668;2023-05-07T12:34:10;5.85;;;5.25;;
24961;SDS011;12992;50.884;13.668;2023-05-07T12:36:37;7.32;;;5.60;;
24961;SDS011;12992;50.884;13.668;2023-05-07T12:39:04;6.25;;;5.65;;
24961;SDS011;12992;50.884;13.668;2023-05-07T12:41:30;7.28;;;6.38;;
24961;SDS011;12992;50.884;13.668;2023-05-07T12:43:56;6.15;;;5.50;;
24961;SDS011;12992;50.884;13.668;2023-05-07T12:46:22;9.32;;;6.32;;
24961;SDS011;12992;50.884;13.668;2023-05-07T12:48:48;8.57;;;6.40;;
24961;SDS011;12992;50.884;13.668;2023-05-07T12:51:13;7.95;;;6.47;;
24961;SDS011;12992;50.884;13.668;2023-05-07T12:53:40;7.20;;;6.22;;
24961;SDS011;12992;50.884;13.668;2023-05-07T12:56:09;9.70;;;5.82;;
24961;SDS011;12992;50.884;13.668;2023-05-07T12:58:34;7.03;;;5.50;;
24961;SDS011;12992;50.884;13.668;2023-05-07T13:01:04;6.63;;;5.30;;
24961;SDS011;12992;50.884;13.668;2023-05-07T13:03:32;7.78;;;5.90;;
24961;SDS011;12992;50.884;13.668;2023-05-07T13:05:59;6.32;;;5.72;;
24961;SDS011;12992;50.884;13.668;2023-05-07T13:08:30;7.88;;;6.65;;
24961;SDS011;12992;50.884;13.668;2023-05-07T13:10:57;6.45;;;5.63;;
24961;SDS011;12992;50.884;13.668;2023-05-07T13:13:24;9.10;;;7.03;;
24961;SDS011;12992;50.884;13.668;2023-05-07T13:15:50;8.68;;;6.47;;
24961;SDS011;12992;50.884;13.668;2023-05-07T13:18:15;7.15;;;6.28;;
24961;SDS011;12992;50.884;13.668;2023-05-07T13:20:40;7.85;;;6.57;;
24961;SDS011;12992;50.884;13.668;2023-05-07T13:23:06;6.93;;;6.03;;
24961;SDS011;12992;50.884;13.668;2023-05-07T13:25:31;8.00;;;6.43;;
24961;SDS011;12992;50.884;13.668;2023-05-07T13:27:57;7.55;;;6.05;;
24961;SDS011;12992;50.884;13.668;2023-05-07T13:30:22;8.10;;;6.85;;
24961;SDS011;12992;50.884;13.668;2023-05-07T13:32:48;8.13;;;6.35;;
24961;SDS011;12992;50.884;13.668;2023-05-07T13:35:14;8.85;;;6.38;;
24961;SDS011;12992;50.884;13.668;2023-05-07T13:37:39;8.05;;;6.00;;
24961;SDS011;12992;50.884;13.668;2023-05-07T13:40:05;7.18;;;5.68;;
24961;SDS011;12992;50.884;13.668;2023-05-07T13:42:31;8.73;;;6.45;;
24961;SDS011;12992;50.884;13.668;2023-05-07T13:44:56;6.95;;;5.97;;
24961;SDS011;12992;50.884;13.668;2023-05-07T13:47:22;7.45;;;6.32;;
24961;SDS011;12992;50.884;13.668;2023-05-07T13:49:47;8.00;;;6.75;;
24961;SDS011;12992;50.884;13.668;2023-05-07T13:52:15;9.35;;;6.32;;
24961;SDS011;12992;50.884;13.668;2023-05-07T13:54:41;7.68;;;6.55;;
24961;SDS011;12992;50.884;13.668;2023-05-07T13:57:06;9.93;;;6.50;;
24961;SDS011;12992;50.884;13.668;2023-05-07T13:59:31;8.50;;;7.10;;
24961;SDS011;12992;50.884;13.668;2023-05-07T14:01:58;8.50;;;6.15;;
24961;SDS011;12992;50.884;13.668;2023-05-07T14:04:23;8.98;;;6.82;;
24961;SDS011;12992;50.884;13.668;2023-05-07T14:06:48;7.18;;;6.10;;
24961;SDS011;12992;50.884;13.668;2023-05-07T14:09:14;7.03;;;6.13;;
24961;SDS011;12992;50.884;13.668;2023-05-07T14:11:39;8.55;;;6.72;;
24961;SDS011;12992;50.884;13.668;2023-05-07T14:14:05;7.47;;;6.22;;
24961;SDS011;12992;50.884;13.668;2023-05-07T14:16:30;7.88;;;6.20;;
24961;SDS011;12992;50.884;13.668;2023-05-07T14:18:55;7.80;;;6.45;;
24961;SDS011;12992;50.884;13.668;2023-05-07T14:21:21;7.72;;;5.97;;
24961;SDS011;12992;50.884;13.668;2023-05-07T14:23:46;8.27;;;6.85;;
24961;SDS011;12992;50.884;13.668;2023-05-07T14:26:12;8.45;;;6.32;;
24961;SDS011;12992;50.884;13.668;2023-05-07T14:28:37;12.45;;;7.57;;
24961;SDS011;12992;50.884;13.668;2023-05-07T14:31:04;10.20;;;6.75;;
24961;SDS011;12992;50.884;13.668;2023-05-07T14:33:30;7.35;;;5.97;;
24961;SDS011;12992;50.884;13.668;2023-05-07T14:35:55;7.45;;;6.50;;
24961;SDS011;12992;50.884;13.668;2023-05-07T14:38:20;6.80;;;5.47;;